Time;durP1;ratioP1;P1;durP2;ratioP2;P2;SDS_P1;SDS_P2;PMS_P1;PMS_P2;Temp;Humidity;BMP_temperature;BMP_pressure;BME280_temperature;BME280_humidity;BME280_pressure;Samples;Min_cycle;Max_cycle;Signal;HPM_P1;HPM_P2
2022/12/21 00:01:05;;;;;;;185.25;42.78;;;8.60;99.90;;;;;;5014011;28;20038;-48
2022/12/21 00:03:31;;;;;;;225.20;44.30;;;8.70;99.90;;;;;;5014054;28;20418;-53
2022/12/21 00:05:57;;;;;;;345.67;49.38;;;8.00;99.90;;;;;;5013776;28;20038;-51
2022/12/21 00:08:22;;;;;;;287.45;46.75;;;8.30;99.90;;;;;;5013712;28;20050;-48
2022/12/21 00:10:48;;;;;;;408.17;50.17;;;8.10;99.90;;;;;;5014074;28;20115;-50
2022/12/21 00:13:17;;;;;;;286.23;45.40;;;8.00;99.90;;;;;;5014112;28;20042;-50
2022/12/21 00:15:44;;;;;;;452.08;52.00;;;8.60;99.90;;;;;;5013995;28;20044;-49
2022/12/21 00:18:10;;;;;;;417.55;49.75;;;8.50;99.90;;;;;;5013902;28;20405;-47
2022/12/21 00:20:36;;;;;;;545.97;55.35;;;8.10;99.90;;;;;;5013526;28;20064;-47
2022/12/21 00:23:02;;;;;;;615.33;61.53;;;8.50;99.90;;;;;;4996262;28;20049;-52
2022/12/21 00:25:27;;;;;;;470.25;49.58;;;8.60;99.90;;;;;;5013418;28;20061;-48
2022/12/21 00:27:53;;;;;;;641.20;58.50;;;8.20;99.90;;;;;;5013595;28;20049;-48
2022/12/21 00:30:19;;;;;;;461.33;46.40;;;8.00;99.90;;;;;;5013705;28;20054;-49
2022/12/21 00:32:44;;;;;;;524.75;47.67;;;8.30;99.90;;;;;;5013282;28;20030;-48
2022/12/21 00:35:10;;;;;;;433.65;50.10;;;7.90;99.90;;;;;;5013650;28;20469;-50
2022/12/21 00:37:36;;;;;;;512.88;47.53;;;7.90;99.90;;;;;;5012359;28;20157;-52
2022/12/21 00:40:02;;;;;;;563.63;51.92;;;8.50;99.90;;;;;;5013115;28;20045;-49
2022/12/21 00:42:28;;;;;;;645.88;52.95;;;8.30;99.90;;;;;;5013458;28;20033;-47
2022/12/21 00:44:53;;;;;;;535.78;49.33;;;7.90;99.90;;;;;;5013442;28;21204;-48
2022/12/21 00:47:19;;;;;;;596.95;48.75;;;8.30;99.90;;;;;;4995775;28;20125;-52
2022/12/21 00:49:45;;;;;;;548.25;46.08;;;8.10;99.90;;;;;;5013257;28;20029;-46
2022/12/21 00:52:10;;;;;;;542.65;44.45;;;8.30;99.90;;;;;;5012142;28;20535;-49
2022/12/21 00:54:36;;;;;;;416.25;36.88;;;7.70;99.90;;;;;;5013102;28;20457;-48
2022/12/21 00:57:02;;;;;;;422.45;38.80;;;8.30;99.90;;;;;;5012984;28;20049;-47
2022/12/21 00:59:27;;;;;;;414.35;34.83;;;7.50;99.90;;;;;;5013180;28;20038;-49
2022/12/21 01:01:53;;;;;;;343.40;33.63;;;8.10;99.90;;;;;;5012776;28;20106;-48
2022/12/21 01:04:19;;;;;;;393.58;37.65;;;7.60;99.90;;;;;;4995399;28;20076;-51
2022/12/21 01:06:44;;;;;;;405.08;35.95;;;7.50;99.90;;;;;;5012807;28;20073;-47
2022/12/21 01:09:10;;;;;;;336.63;31.73;;;8.10;99.90;;;;;;5010518;28;20392;-47
2022/12/21 01:11:36;;;;;;;270.55;31.45;;;7.80;99.90;;;;;;5013254;28;20117;-49
2022/12/21 01:14:01;;;;;;;229.75;27.20;;;7.90;99.90;;;;;;5012462;28;20103;-49
2022/12/21 01:16:30;;;;;;;384.13;33.58;;;7.30;99.90;;;;;;5012920;28;20036;-48
2022/12/21 01:18:56;;;;;;;242.98;26.85;;;7.50;99.90;;;;;;5012772;28;20568;-50
2022/12/21 01:21:24;;;;;;;190.88;26.40;;;7.20;99.90;;;;;;5012431;28;20140;-47
2022/12/21 01:23:50;;;;;;;222.38;26.73;;;7.40;99.90;;;;;;5012457;28;20050;-52
2022/12/21 01:26:17;;;;;;;296.15;29.83;;;7.10;99.90;;;;;;5012780;28;20171;-47
2022/12/21 01:28:43;;;;;;;427.55;36.53;;;7.30;99.90;;;;;;5012475;28;20143;-48
2022/12/21 01:31:08;;;;;;;241.73;29.85;;;7.00;99.90;;;;;;5012349;28;20409;-49
2022/12/21 01:33:34;;;;;;;246.13;29.33;;;7.60;99.90;;;;;;5012591;28;20030;-47
2022/12/21 01:36:08;;;;;;;323.85;33.60;;;7.00;99.90;;;;;;5012583;28;20107;-49
2022/12/21 01:38:34;;;;;;;320.50;32.78;;;7.70;99.90;;;;;;5012500;28;20045;-49
2022/12/21 01:41:01;;;;;;;344.17;32.67;;;7.10;99.90;;;;;;5012079;28;20044;-51
2022/12/21 01:43:45;;;;;;;402.30;33.97;;;7.20;99.90;;;;;;5011833;28;20045;-49
2022/12/21 01:46:18;;;;;;;372.00;30.52;;;7.00;99.90;;;;;;5012298;28;20034;-48
2022/12/21 01:48:53;;;;;;;414.25;35.92;;;7.00;99.90;;;;;;5012345;28;20516;-52
2022/12/21 01:51:19;;;;;;;201.20;29.90;;;7.10;99.90;;;;;;5011822;28;20038;-47
2022/12/21 01:53:59;;;;;;;291.13;32.63;;;7.30;99.90;;;;;;5012222;28;20093;-48
2022/12/21 01:56:31;;;;;;;202.35;31.73;;;7.60;99.90;;;;;;5011839;28;20068;-48
2022/12/21 01:59:05;;;;;;;325.73;35.45;;;7.10;99.90;;;;;;5012149;28;20046;-52
2022/12/21 02:01:31;;;;;;;;;;;7.20;99.90;;;;;;5011796;28;20046;-47
2022/12/21 02:03:57;;;;;;;312.83;34.25;;;7.60;99.90;;;;;;5011730;28;20012;-48
2022/12/21 02:06:32;;;;;;;319.13;34.80;;;7.30;99.90;;;;;;5011876;28;20454;-47
2022/12/21 02:09:00;;;;;;;407.70;38.05;;;7.10;99.90;;;;;;5011435;28;20081;-47
2022/12/21 02:11:26;;;;;;;413.50;38.47;;;6.90;99.90;;;;;;5012006;28;20038;-48
2022/12/21 02:13:52;;;;;;;307.55;35.47;;;7.40;99.90;;;;;;5011361;28;20041;-49
2022/12/21 02:16:41;;;;;;;301.25;34.72;;;7.10;99.90;;;;;;5011700;28;20034;-49
2022/12/21 02:19:32;;;;;;;361.67;35.80;;;6.80;99.90;;;;;;5010880;28;20113;-50
2022/12/21 02:22:30;;;;;;;345.60;34.83;;;6.80;99.90;;;;;;5011220;28;20127;-48
2022/12/21 02:25:40;;;;;;;346.17;33.13;;;7.40;99.90;;;;;;5011759;28;20048;-47
2022/12/21 02:28:17;;;;;;;385.45;34.20;;;7.20;99.90;;;;;;4950444;29;20039;-50
2022/12/21 02:30:55;;;;;;;381.15;35.58;;;6.80;99.90;;;;;;4950768;29;20039;-48
2022/12/21 02:34:05;;;;;;;392.65;35.35;;;7.30;99.90;;;;;;4989371;28;20041;-49
2022/12/21 02:37:16;;;;;;;418.88;36.58;;;7.30;99.90;;;;;;5010950;28;20049;-46
2022/12/21 02:40:09;;;;;;;323.13;32.33;;;7.30;99.90;;;;;;5007028;28;20046;-46
2022/12/21 02:45:50;;;;;;;355.38;33.80;;;6.50;99.90;;;;;;5009837;28;20042;-47
2022/12/21 02:48:16;;;;;;;363.25;34.45;;;6.50;99.90;;;;;;5010826;28;20046;-49
2022/12/21 02:50:49;;;;;;;218.55;28.77;;;6.90;99.90;;;;;;5011672;28;20038;-48
2022/12/21 02:53:21;;;;;;;307.73;30.05;;;6.70;99.90;;;;;;5011379;28;20053;-48
2022/12/21 02:55:47;;;;;;;236.40;28.02;;;6.40;99.90;;;;;;5011136;28;20041;-46
2022/12/21 02:58:17;;;;;;;243.43;26.58;;;7.00;99.90;;;;;;5011254;28;20041;-47
2022/12/21 03:00:52;;;;;;;330.60;32.15;;;6.30;99.90;;;;;;5011054;28;20046;-47
2022/12/21 03:06:50;;;;;;;322.65;28.00;;;6.40;99.90;;;;;;5011174;28;20188;-49
2022/12/21 03:09:27;;;;;;;271.77;27.00;;;6.20;99.90;;;;;;5010840;28;20034;-47
2022/12/21 03:12:00;;;;;;;239.60;27.27;;;6.20;99.90;;;;;;5011097;28;20473;-49
2022/12/21 03:14:43;;;;;;;201.43;24.77;;;6.70;99.90;;;;;;5011130;28;20077;-47
2022/12/21 03:17:27;;;;;;;165.20;24.27;;;6.80;99.90;;;;;;5011009;28;20421;-47
2022/12/21 03:19:57;;;;;;;127.13;23.63;;;6.40;99.90;;;;;;5011104;28;20500;-48
2022/12/21 03:22:55;;;;;;;128.38;22.27;;;6.10;99.90;;;;;;5009945;28;20057;-47
2022/12/21 03:25:30;;;;;;;227.98;26.17;;;6.40;99.90;;;;;;5007403;28;20049;-48
2022/12/21 03:28:01;;;;;;;183.95;25.20;;;6.40;99.90;;;;;;5010697;28;20049;-47
2022/12/21 03:30:29;;;;;;;118.00;22.77;;;6.10;99.90;;;;;;5008940;28;20045;-46
2022/12/21 03:33:02;;;;;;;172.73;24.50;;;5.80;99.90;;;;;;5011082;28;20038;-48
2022/12/21 03:35:52;;;;;;;158.90;25.25;;;6.10;99.90;;;;;;5015120;28;20042;-47
2022/12/21 03:38:44;;;;;;;181.00;25.27;;;6.50;99.90;;;;;;5014230;28;20045;-47
2022/12/21 03:41:21;;;;;;;174.55;26.45;;;5.80;99.90;;;;;;5007439;28;20054;-48
2022/12/21 03:43:49;;;;;;;170.85;27.08;;;5.80;99.90;;;;;;5014468;28;20046;-46
2022/12/21 03:46:25;;;;;;;160.75;26.17;;;6.20;99.90;;;;;;5014532;28;20397;-46
2022/12/21 03:48:55;;;;;;;196.73;26.98;;;6.10;99.90;;;;;;5014165;28;20056;-47
2022/12/21 03:51:43;;;;;;;186.85;26.42;;;6.00;99.90;;;;;;5014430;28;20049;-47
2022/12/21 03:54:30;;;;;;;178.82;26.65;;;6.40;99.90;;;;;;5014236;28;20593;-47
2022/12/21 03:56:57;;;;;;;209.45;29.10;;;5.80;99.90;;;;;;5014347;28;20384;-47
2022/12/21 03:59:24;;;;;;;237.10;28.98;;;6.40;99.90;;;;;;4996273;28;20052;-47
2022/12/21 04:02:04;;;;;;;174.73;26.48;;;6.40;99.90;;;;;;5012755;28;20038;-46
2022/12/21 04:04:53;;;;;;;210.05;27.75;;;6.40;99.90;;;;;;5013791;28;20042;-46
2022/12/21 04:07:24;;;;;;;239.20;28.65;;;6.00;99.90;;;;;;4996381;28;20133;-47
2022/12/21 04:09:56;;;;;;;200.05;26.50;;;6.00;99.90;;;;;;5013826;28;20163;-48
2022/12/21 04:12:39;;;;;;;169.45;25.98;;;6.50;99.90;;;;;;4996675;28;20046;-48
2022/12/21 04:15:23;;;;;;;199.95;27.25;;;5.90;99.90;;;;;;5013986;28;20042;-47
2022/12/21 04:17:52;;;;;;;216.32;28.15;;;6.40;99.90;;;;;;5014396;28;20648;-47
2022/12/21 04:20:23;;;;;;;266.52;30.00;;;5.80;99.90;;;;;;5013796;28;20037;-48
2022/12/21 04:28:21;;;;;;;;;;;6.40;99.90;;;;;;5014337;28;20099;-48
2022/12/21 04:30:47;;;;;;;249.60;26.55;;;6.10;99.90;;;;;;5014028;28;19917;-47
2022/12/21 04:33:16;;;;;;;290.00;27.02;;;6.30;99.90;;;;;;5013604;28;20477;-47
2022/12/21 04:38:27;;;;;;;324.67;30.92;;;5.70;99.90;;;;;;5013407;28;20042;-48
2022/12/21 04:40:54;;;;;;;291.17;30.20;;;5.70;99.90;;;;;;5013746;28;20465;-46
2022/12/21 04:43:20;;;;;;;281.02;28.40;;;5.80;99.90;;;;;;5013600;28;20088;-47
2022/12/21 04:45:46;;;;;;;268.73;29.42;;;6.10;99.90;;;;;;5013586;28;20077;-49
2022/12/21 04:48:12;;;;;;;267.13;29.05;;;5.80;99.90;;;;;;5013522;28;20496;-48
2022/12/21 04:50:39;;;;;;;230.45;29.50;;;6.10;99.90;;;;;;5013309;28;20117;-47
2022/12/21 04:53:05;;;;;;;239.73;31.33;;;5.80;99.90;;;;;;5013492;28;20066;-46
2022/12/21 04:55:30;;;;;;;181.70;30.65;;;5.90;99.90;;;;;;5013299;28;20448;-47
2022/12/21 04:57:56;;;;;;;279.13;32.22;;;6.40;99.90;;;;;;5013402;28;20495;-47
2022/12/21 05:00:22;;;;;;;136.95;27.58;;;6.30;99.90;;;;;;5013244;28;20361;-48
2022/12/21 05:02:47;;;;;;;91.72;26.50;;;6.40;99.90;;;;;;5012896;28;20084;-47
2022/12/21 05:05:13;;;;;;;257.83;33.25;;;6.50;99.90;;;;;;5013286;28;20417;-48
2022/12/21 05:07:39;;;;;;;236.20;31.48;;;6.60;99.90;;;;;;5013190;28;20418;-47
2022/12/21 05:10:05;;;;;;;203.70;31.17;;;6.70;99.90;;;;;;5012656;28;20037;-47
2022/12/21 05:12:30;;;;;;;254.00;32.55;;;6.70;99.90;;;;;;5012347;28;20038;-48
2022/12/21 05:14:56;;;;;;;165.77;31.17;;;6.70;99.90;;;;;;5012802;28;20384;-47
2022/12/21 05:17:22;;;;;;;214.80;32.28;;;6.40;99.90;;;;;;5012928;28;20038;-47
2022/12/21 05:19:48;;;;;;;249.65;33.25;;;6.20;99.90;;;;;;4995185;28;20121;-47
2022/12/21 05:22:17;;;;;;;249.68;33.03;;;6.50;99.90;;;;;;4994602;28;20053;-47
2022/12/21 05:24:44;;;;;;;199.57;30.08;;;6.90;99.90;;;;;;5013151;28;20057;-47
2022/12/21 05:27:11;;;;;;;180.65;30.02;;;6.80;99.90;;;;;;5012783;28;20042;-47
2022/12/21 05:29:36;;;;;;;261.67;30.83;;;6.80;99.90;;;;;;5012217;28;20056;-47
2022/12/21 05:32:02;;;;;;;242.30;29.15;;;6.90;99.90;;;;;;5012285;28;20113;-49
2022/12/21 05:34:28;;;;;;;238.60;29.88;;;6.90;99.90;;;;;;5011182;28;20041;-46
2022/12/21 05:36:54;;;;;;;250.25;29.80;;;6.20;99.90;;;;;;5011042;28;20034;-47
2022/12/21 05:39:19;;;;;;;269.13;33.45;;;6.90;99.90;;;;;;5012519;28;20037;-47
2022/12/21 05:41:45;;;;;;;150.55;26.45;;;6.40;99.90;;;;;;5010127;28;20050;-47
2022/12/21 05:44:11;;;;;;;183.02;29.08;;;6.90;99.90;;;;;;4994409;28;20046;-46
2022/12/21 05:46:36;;;;;;;233.80;31.58;;;6.20;99.90;;;;;;5012246;28;20399;-47
2022/12/21 05:49:02;;;;;;;133.85;28.00;;;6.90;99.90;;;;;;5012067;28;20056;-49
2022/12/21 05:51:28;;;;;;;119.72;28.33;;;6.30;99.90;;;;;;5011699;28;20037;-47
2022/12/21 05:53:54;;;;;;;151.15;29.42;;;6.60;99.90;;;;;;5011092;28;20033;-47
2022/12/21 05:56:20;;;;;;;114.60;28.70;;;6.80;99.90;;;;;;5011429;28;20026;-46
2022/12/21 05:58:46;;;;;;;133.52;29.33;;;6.20;99.90;;;;;;5010694;28;20042;-47
2022/12/21 06:01:12;;;;;;;128.52;27.92;;;6.60;99.90;;;;;;5011966;28;20045;-48
2022/12/21 06:03:39;;;;;;;146.45;28.70;;;6.80;99.90;;;;;;5011366;28;20485;-49
2022/12/21 06:06:11;;;;;;;148.10;29.73;;;6.20;99.90;;;;;;5012010;28;20060;-48
2022/12/21 06:08:37;;;;;;;237.55;29.42;;;6.50;99.90;;;;;;5011870;28;20077;-48
2022/12/21 06:11:08;;;;;;;230.48;30.17;;;6.10;99.90;;;;;;5011845;28;20045;-49
2022/12/21 06:13:34;;;;;;;293.15;32.15;;;6.70;99.90;;;;;;5011618;28;20030;-47
2022/12/21 06:16:12;;;;;;;260.20;28.80;;;6.90;99.90;;;;;;5011744;28;20037;-47
2022/12/21 06:18:38;;;;;;;339.00;32.10;;;6.60;99.90;;;;;;5011443;28;20041;-49
2022/12/21 06:21:04;;;;;;;297.90;30.27;;;6.00;99.90;;;;;;5020319;28;20100;-47
2022/12/21 06:23:30;;;;;;;327.23;30.75;;;6.30;99.90;;;;;;5011804;28;20046;-49
2022/12/21 06:26:02;;;;;;;372.13;32.80;;;6.70;99.90;;;;;;5011257;28;20121;-47
2022/12/21 06:28:29;;;;;;;374.33;36.20;;;6.50;99.90;;;;;;5009955;28;20045;-47
2022/12/21 06:31:02;;;;;;;400.27;33.72;;;5.90;99.90;;;;;;5011618;28;20540;-47
2022/12/21 06:33:28;;;;;;;347.77;31.13;;;7.40;99.90;;;;;;5011022;28;20560;-49
2022/12/21 06:35:57;;;;;;;321.55;29.90;;;6.00;99.90;;;;;;5011238;28;20168;-47
2022/12/21 06:38:24;;;;;;;389.83;32.78;;;6.70;99.90;;;;;;5011229;28;20102;-47
2022/12/21 06:41:04;;;;;;;230.63;28.33;;;6.00;99.90;;;;;;5010926;28;20050;-47
2022/12/21 06:43:32;;;;;;;240.90;30.50;;;6.00;99.90;;;;;;5011163;28;20057;-49
2022/12/21 06:46:00;;;;;;;171.40;27.35;;;6.20;99.90;;;;;;5011508;28;20077;-47
2022/12/21 06:48:27;;;;;;;229.80;29.17;;;6.00;99.90;;;;;;5010977;28;20400;-50
2022/12/21 06:51:02;;;;;;;345.42;33.35;;;5.90;99.90;;;;;;5011000;28;20136;-47
2022/12/21 06:53:31;;;;;;;166.40;27.35;;;6.40;99.90;;;;;;5010895;28;20117;-48
2022/12/21 06:56:05;;;;;;;161.07;27.98;;;6.40;99.90;;;;;;5011061;28;20030;-48
2022/12/21 06:58:31;;;;;;;156.45;28.58;;;6.10;99.90;;;;;;4977014;28;20042;-47
2022/12/21 07:01:03;;;;;;;202.43;29.48;;;6.60;99.90;;;;;;5011159;28;20038;-48
2022/12/21 07:03:28;;;;;;;233.98;30.70;;;6.50;99.90;;;;;;5010496;28;20041;-47
2022/12/21 07:05:54;;;;;;;262.25;33.10;;;5.70;99.90;;;;;;5010956;28;20611;-48
2022/12/21 07:08:21;;;;;;;221.18;30.77;;;6.30;99.90;;;;;;5009972;28;20046;-47
2022/12/21 07:10:47;;;;;;;246.15;31.02;;;5.70;99.90;;;;;;5011073;28;20136;-46
2022/12/21 07:13:13;;;;;;;208.35;28.50;;;6.20;99.90;;;;;;4993454;28;20469;-49
2022/12/21 07:15:38;;;;;;;235.48;29.90;;;6.30;99.90;;;;;;5010963;28;20113;-48
2022/12/21 07:18:04;;;;;;;219.55;28.45;;;6.00;99.90;;;;;;5010658;28;20496;-49
2022/12/21 07:20:30;;;;;;;182.48;30.23;;;5.60;99.90;;;;;;5011054;28;20037;-47
2022/12/21 07:22:56;;;;;;;134.68;29.30;;;5.80;99.90;;;;;;5010901;28;20130;-46
2022/12/21 07:25:21;;;;;;;109.65;27.92;;;6.40;99.90;;;;;;5010719;28;20377;-47
2022/12/21 07:27:47;;;;;;;112.95;28.88;;;6.30;99.90;;;;;;5010773;28;20034;-46
2022/12/21 07:30:13;;;;;;;113.68;31.13;;;5.60;99.90;;;;;;5010483;28;20042;-48
2022/12/21 07:32:39;;;;;;;115.00;31.73;;;6.20;99.90;;;;;;5008987;28;20049;-49
2022/12/21 07:35:06;;;;;;;114.05;32.00;;;5.60;99.90;;;;;;5010700;28;20500;-49
2022/12/21 07:37:32;;;;;;;114.50;31.08;;;6.40;99.90;;;;;;5004695;28;20042;-47
2022/12/21 07:39:58;;;;;;;118.35;31.73;;;5.60;99.90;;;;;;5008749;28;20060;-47
2022/12/21 07:42:24;;;;;;;118.28;33.45;;;6.40;99.90;;;;;;5010527;28;20564;-48
2022/12/21 07:44:50;;;;;;;137.95;34.72;;;6.80;99.90;;;;;;5009905;28;20042;-47
2022/12/21 07:47:15;;;;;;;142.75;35.35;;;6.50;99.90;;;;;;5002034;28;20042;-47
2022/12/21 07:49:41;;;;;;;140.77;36.25;;;5.70;99.90;;;;;;4992592;28;20499;-49
2022/12/21 07:52:06;;;;;;;149.93;37.83;;;6.10;99.90;;;;;;5010260;28;20374;-47
2022/12/21 07:54:32;;;;;;;152.73;37.90;;;5.70;99.90;;;;;;5010405;28;20084;-48
2022/12/21 07:56:59;;;;;;;140.23;36.05;;;6.70;99.90;;;;;;5010378;28;20473;-47
2022/12/21 07:59:25;;;;;;;162.02;38.45;;;5.70;99.90;;;;;;5010628;28;20093;-48
2022/12/21 08:01:50;;;;;;;167.55;40.95;;;6.40;99.90;;;;;;4992230;28;20089;-47
2022/12/21 08:04:16;;;;;;;179.80;40.33;;;6.20;99.90;;;;;;5009387;28;20072;-50
2022/12/21 08:06:42;;;;;;;378.77;44.70;;;6.40;99.90;;;;;;4991561;28;20053;-46
2022/12/21 08:09:09;;;;;;;370.65;45.47;;;6.50;99.90;;;;;;4992746;28;20045;-47
2022/12/21 08:11:35;;;;;;;257.92;40.42;;;5.70;99.90;;;;;;4991556;28;20038;-47
2022/12/21 08:14:01;;;;;;;395.38;47.10;;;6.50;99.90;;;;;;5004942;28;20037;-47
2022/12/21 08:16:26;;;;;;;365.17;45.03;;;5.70;99.90;;;;;;5000051;28;20042;-48
2022/12/21 08:18:55;;;;;;;307.23;43.47;;;6.60;99.90;;;;;;5000730;28;20408;-48
2022/12/21 08:21:21;;;;;;;288.40;42.95;;;5.70;99.90;;;;;;5001893;28;20069;-47
2022/12/21 08:23:47;;;;;;;405.20;44.83;;;5.70;99.90;;;;;;5005143;28;20038;-48
2022/12/21 08:26:14;;;;;;;278.23;39.53;;;6.10;99.90;;;;;;4971201;28;20484;-47
2022/12/21 08:28:41;;;;;;;291.13;41.20;;;5.70;99.90;;;;;;4985944;28;20131;-47
2022/12/21 08:31:10;;;;;;;271.45;39.05;;;6.50;99.90;;;;;;5002131;28;20145;-50
2022/12/21 08:33:36;;;;;;;375.23;46.15;;;5.80;99.90;;;;;;5003920;28;20052;-48
2022/12/21 08:36:03;;;;;;;335.98;41.75;;;6.30;99.90;;;;;;5004674;28;20033;-49
2022/12/21 08:38:28;;;;;;;326.13;39.78;;;6.40;99.90;;;;;;5007407;28;20033;-47
2022/12/21 08:40:59;;;;;;;460.55;52.22;;;6.50;99.90;;;;;;5014387;28;20396;-47
2022/12/21 08:43:25;;;;;;;315.70;43.67;;;6.00;99.90;;;;;;5002093;28;20044;-47
2022/12/21 08:45:51;;;;;;;362.45;48.42;;;6.50;99.90;;;;;;5002816;28;20041;-46
2022/12/21 08:48:17;;;;;;;436.75;54.38;;;6.60;99.90;;;;;;5006365;28;20052;-49
2022/12/21 08:50:50;;;;;;;337.50;48.40;;;6.80;99.90;;;;;;5004932;28;20034;-49
2022/12/21 08:53:15;;;;;;;302.30;47.75;;;7.00;99.90;;;;;;5005832;28;20042;-50
2022/12/21 08:55:41;;;;;;;381.98;53.22;;;6.30;99.90;;;;;;5006294;28;20319;-49
2022/12/21 08:58:07;;;;;;;284.40;48.30;;;7.10;99.90;;;;;;5000606;28;20065;-48
2022/12/21 09:00:32;;;;;;;247.93;45.83;;;7.60;99.90;;;;;;5002264;28;20419;-48
2022/12/21 09:02:58;;;;;;;242.68;45.38;;;6.50;99.90;;;;;;5003541;28;20445;-48
2022/12/21 09:05:24;;;;;;;268.65;46.88;;;7.30;99.90;;;;;;4986189;28;20314;-46
2022/12/21 09:07:49;;;;;;;217.02;45.47;;;6.60;99.90;;;;;;5004396;28;20030;-48
2022/12/21 09:10:15;;;;;;;237.65;44.20;;;6.70;99.90;;;;;;5003535;28;20042;-48
2022/12/21 09:12:41;;;;;;;272.98;47.70;;;7.30;99.90;;;;;;5002409;28;20477;-47
2022/12/21 09:15:07;;;;;;;217.35;47.50;;;6.70;99.90;;;;;;5003616;28;20453;-48
2022/12/21 09:17:33;;;;;;;217.75;45.40;;;7.20;99.90;;;;;;5004257;28;20034;-48
2022/12/21 09:19:58;;;;;;;201.85;44.10;;;7.30;99.90;;;;;;5003673;28;20037;-47
2022/12/21 09:22:25;;;;;;;197.00;43.42;;;6.80;99.90;;;;;;4999748;28;20050;-47
2022/12/21 09:24:51;;;;;;;188.32;41.80;;;7.60;99.90;;;;;;4999928;28;20056;-47
2022/12/21 09:27:17;;;;;;;177.70;40.92;;;7.30;99.90;;;;;;5000604;28;20037;-46
2022/12/21 09:29:43;;;;;;;167.77;39.67;;;7.00;99.90;;;;;;5002428;28;20128;-49
2022/12/21 09:32:08;;;;;;;157.15;39.60;;;7.20;99.90;;;;;;4984646;28;20034;-51
2022/12/21 09:34:34;;;;;;;162.10;39.00;;;7.80;99.90;;;;;;5002471;28;20136;-51
2022/12/21 09:37:00;;;;;;;151.15;35.67;;;7.10;99.90;;;;;;5002474;28;20077;-49
2022/12/21 09:39:25;;;;;;;164.60;38.22;;;7.30;99.90;;;;;;5002363;28;20114;-49
2022/12/21 09:42:03;;;;;;;147.35;37.95;;;7.20;99.90;;;;;;5001404;28;20037;-47
2022/12/21 09:44:52;;;;;;;151.63;38.58;;;7.80;99.90;;;;;;5001414;28;20504;-48
2022/12/21 09:47:45;;;;;;;167.23;38.53;;;8.00;99.90;;;;;;4982404;28;20119;-47
2022/12/21 09:50:35;;;;;;;156.05;38.83;;;7.60;99.90;;;;;;5001429;28;20102;-47
2022/12/21 09:53:12;;;;;;;159.30;38.03;;;8.00;99.90;;;;;;4984508;28;20076;-48
2022/12/21 09:55:46;;;;;;;160.48;38.20;;;7.70;99.90;;;;;;5002923;28;20117;-48
2022/12/21 09:58:18;;;;;;;138.82;36.83;;;7.20;99.90;;;;;;5002629;28;20084;-50
2022/12/21 10:00:47;;;;;;;175.18;40.00;;;7.20;99.90;;;;;;4999557;28;20103;-46
2022/12/21 10:03:34;;;;;;;158.98;36.63;;;8.00;99.90;;;;;;5003259;28;20040;-47
2022/12/21 10:06:24;;;;;;;137.73;37.35;;;7.20;99.90;;;;;;5001777;28;20061;-49
2022/12/21 10:09:01;;;;;;;130.38;35.67;;;7.20;99.90;;;;;;5001881;28;20057;-47
2022/12/21 10:12:19;;;;;;;143.32;37.83;;;8.00;99.90;;;;;;5000458;28;20088;-46
2022/12/21 10:15:07;;;;;;;129.98;35.80;;;7.70;99.90;;;;;;5002179;28;20891;-46
2022/12/21 10:17:50;;;;;;;131.45;35.05;;;8.00;99.90;;;;;;5002717;28;20033;-47
2022/12/21 10:20:23;;;;;;;129.23;35.25;;;8.20;99.90;;;;;;5002484;28;20128;-47
2022/12/21 10:22:54;;;;;;;137.50;37.37;;;8.10;99.90;;;;;;5001837;28;20141;-48
2022/12/21 10:25:27;;;;;;;141.00;38.00;;;7.80;99.90;;;;;;5001760;28;20806;-48
2022/12/21 10:28:37;;;;;;;122.60;36.53;;;8.60;99.90;;;;;;5000120;28;20473;-49
2022/12/21 10:31:06;;;;;;;133.63;37.40;;;8.20;99.90;;;;;;4999745;28;20440;-48
2022/12/21 10:33:41;;;;;;;124.00;38.47;;;8.50;99.90;;;;;;5000178;28;20041;-47
2022/12/21 10:36:15;;;;;;;110.47;38.28;;;9.30;99.90;;;;;;5001259;28;20081;-50
2022/12/21 10:38:42;;;;;;;80.57;30.55;;;8.80;99.90;;;;;;4984400;28;20073;-48
2022/12/21 10:41:19;;;;;;;91.38;35.30;;;9.10;99.90;;;;;;4982347;28;20466;-48
2022/12/21 10:43:48;;;;;;;79.03;31.92;;;9.60;99.90;;;;;;4980422;28;20132;-50
2022/12/21 10:46:17;;;;;;;75.80;30.63;;;9.20;99.90;;;;;;4987054;28;20068;-47
2022/12/21 10:48:45;;;;;;;66.57;30.40;;;9.00;99.90;;;;;;4997234;28;20126;-51
2022/12/21 10:51:34;;;;;;;68.70;30.00;;;9.40;99.90;;;;;;5001764;28;20045;-48
2022/12/21 10:54:05;;;;;;;62.08;30.13;;;9.60;99.90;;;;;;4981562;28;20033;-45
2022/12/21 10:56:35;;;;;;;58.75;28.42;;;9.20;99.90;;;;;;5000985;28;20108;-51
2022/12/21 10:59:20;;;;;;;59.60;29.15;;;9.60;99.90;;;;;;4997234;28;20081;-49
2022/12/21 11:01:46;;;;;;;;;;;9.50;99.90;;;;;;4983427;28;20076;-48
2022/12/21 11:04:25;;;;;;;58.85;28.42;;;9.40;99.90;;;;;;5000953;28;20351;-47
2022/12/21 11:07:03;;;;;;;65.93;28.80;;;9.10;99.90;;;;;;5001394;28;20105;-48
2022/12/21 11:09:37;;;;;;;62.65;31.15;;;9.40;99.90;;;;;;5001091;28;20121;-48
2022/12/21 11:12:21;;;;;;;62.33;29.52;;;9.30;99.90;;;;;;5001118;28;20096;-46
2022/12/21 11:14:48;;;;;;;68.03;30.33;;;9.40;99.90;;;;;;4983185;28;20074;-49
2022/12/21 11:17:23;;;;;;;59.03;29.63;;;10.50;99.90;;;;;;5000595;28;20036;-50
2022/12/21 11:20:00;;;;;;;56.08;28.23;;;9.60;99.90;;;;;;5000925;28;20129;-49
2022/12/21 11:22:28;;;;;;;53.72;27.50;;;9.90;99.90;;;;;;5000966;28;20049;-49
2022/12/21 11:24:57;;;;;;;59.55;28.05;;;9.60;99.90;;;;;;5001281;28;20080;-47
2022/12/21 11:27:27;;;;;;;56.92;25.85;;;9.90;99.90;;;;;;5001453;28;20065;-50
2022/12/21 11:30:16;;;;;;;57.20;25.75;;;9.80;99.90;;;;;;5001306;28;20131;-46
2022/12/21 11:32:44;;;;;;;48.40;24.52;;;10.20;99.90;;;;;;5002083;28;20316;-51
2022/12/21 11:35:28;;;;;;;50.95;24.67;;;10.30;99.90;;;;;;5001527;28;20034;-50
2022/12/21 11:38:07;;;;;;;50.03;24.27;;;10.50;99.90;;;;;;5001399;28;20034;-47
2022/12/21 11:40:33;;;;;;;44.70;23.83;;;10.80;99.90;;;;;;5001330;28;20037;-47
2022/12/21 11:42:59;;;;;;;51.65;25.20;;;10.80;99.90;;;;;;5000758;28;20034;-48
2022/12/21 11:45:31;;;;;;;43.45;21.90;;;11.10;99.90;;;;;;5001243;28;20547;-47
2022/12/21 11:48:21;;;;;;;40.55;20.60;;;11.00;99.90;;;;;;5000774;28;20049;-47
2022/12/21 11:51:29;;;;;;;45.15;20.67;;;11.10;99.90;;;;;;5000849;28;20489;-47
2022/12/21 11:54:06;;;;;;;39.50;21.92;;;11.00;99.90;;;;;;5002064;28;20041;-46
2022/12/21 11:56:50;;;;;;;41.28;21.75;;;10.90;99.90;;;;;;5005116;28;20042;-49
2022/12/21 11:59:40;;;;;;;38.83;20.55;;;10.60;99.90;;;;;;4986930;28;20160;-47
2022/12/21 12:02:24;;;;;;;37.40;19.40;;;10.30;99.90;;;;;;5001033;28;20050;-51
2022/12/21 12:04:59;;;;;;;38.17;20.42;;;10.00;99.90;;;;;;5001241;28;20057;-50
2022/12/21 12:07:47;;;;;;;34.63;18.88;;;9.80;99.90;;;;;;5001922;28;20165;-47
2022/12/21 12:10:25;;;;;;;35.35;18.73;;;9.70;99.90;;;;;;4996208;28;20069;-48
2022/12/21 12:13:05;;;;;;;36.10;19.67;;;9.60;99.90;;;;;;5006326;28;20046;-48
2022/12/21 12:15:53;;;;;;;40.97;20.23;;;9.50;99.90;;;;;;5005130;28;20776;-47
2022/12/21 12:18:50;;;;;;;39.45;21.65;;;9.50;99.90;;;;;;4998648;28;20388;-51
2022/12/21 12:21:40;;;;;;;36.85;21.25;;;9.40;99.90;;;;;;4999758;28;20123;-48
2022/12/21 12:24:25;;;;;;;37.28;22.23;;;9.30;99.90;;;;;;5001445;28;20046;-47
2022/12/21 12:27:13;;;;;;;39.45;22.05;;;9.10;99.90;;;;;;5007224;28;20095;-46
2022/12/21 12:29:55;;;;;;;39.60;22.33;;;9.10;99.90;;;;;;4999817;28;20144;-49
2022/12/21 12:32:32;;;;;;;32.08;21.40;;;9.20;99.90;;;;;;5010274;28;20072;-46
2022/12/21 12:35:21;;;;;;;38.22;23.02;;;9.20;99.90;;;;;;5010266;28;20099;-47
2022/12/21 12:37:55;;;;;;;41.70;23.35;;;9.20;99.90;;;;;;5003417;28;20308;-50
2022/12/21 12:40:35;;;;;;;38.50;23.17;;;9.20;99.90;;;;;;5011714;28;20040;-49
2022/12/21 12:43:04;;;;;;;38.22;21.85;;;9.20;99.90;;;;;;5012364;28;20527;-49
2022/12/21 12:45:33;;;;;;;40.50;22.88;;;9.10;99.90;;;;;;5012746;28;20046;-48
2022/12/21 12:48:23;;;;;;;37.83;23.23;;;9.00;99.90;;;;;;5012569;28;20046;-51
2022/12/21 12:51:01;;;;;;;40.15;23.25;;;9.10;99.90;;;;;;5012294;28;20116;-50
2022/12/21 12:53:26;;;;;;;41.13;22.42;;;9.20;99.90;;;;;;5012188;28;20432;-48
2022/12/21 12:56:07;;;;;;;42.35;23.60;;;9.10;99.90;;;;;;5012171;28;20080;-47
2022/12/21 12:58:48;;;;;;;41.85;23.83;;;9.00;99.90;;;;;;4994474;28;20052;-49
2022/12/21 13:01:31;;;;;;;37.25;23.45;;;9.00;99.90;;;;;;5012323;28;20050;-48
2022/12/21 13:04:32;;;;;;;42.72;24.65;;;8.90;99.90;;;;;;5011458;28;20108;-47
2022/12/21 13:07:34;;;;;;;41.40;24.92;;;8.80;99.90;;;;;;5010967;28;20045;-48